createdAt,value
2023-03-26T00:02:09.181Z,99718.69
2023-03-26T00:05:14.549Z,99718.41
2023-03-26T00:08:19.645Z,99705.44
2023-03-26T00:11:24.155Z,99689.06
2023-03-26T00:14:26.820Z,99684.50
2023-03-26T00:17:28.987Z,99701.91
2023-03-26T00:20:35.071Z,99694.63
2023-03-26T00:23:38.608Z,99691.16
2023-03-26T00:26:41.180Z,99684.44
2023-03-26T00:29:43.488Z,99689.88
2023-03-26T00:32:45.927Z,99700.34
2023-03-26T00:35:58.688Z,99692.31
2023-03-26T00:39:06.154Z,99697.41
2023-03-26T00:42:08.571Z,99686.84
2023-03-26T00:45:11.188Z,99697.09
2023-03-26T00:48:14.411Z,99676.41
2023-03-26T00:51:18.322Z,99674.78
2023-03-26T00:54:20.476Z,99687.97
2023-03-26T00:57:34.684Z,99679.16
2023-03-26T01:00:46.349Z,99691.56
2023-03-26T01:04:06.792Z,99675.44
2023-03-26T01:07:13.464Z,99684.59
2023-03-26T01:10:15.704Z,99678.19
2023-03-26T01:13:21.704Z,99680.13
2023-03-26T01:16:45.103Z,99684.47
2023-03-26T01:20:08.305Z,99686.59
2023-03-26T01:23:10.895Z,99687.13
2023-03-26T01:26:58.482Z,99688.19
2023-03-26T01:30:17.827Z,99692.50
2023-03-26T01:33:48.363Z,99693.34
2023-03-26T01:37:37.827Z,99694.38
2023-03-26T01:40:49.527Z,99693.56
2023-03-26T01:44:00.276Z,99699.25
2023-03-26T01:47:03.473Z,99701.13
2023-03-26T01:50:06.339Z,99692.19
2023-03-26T01:53:09.557Z,99694.09
2023-03-26T01:56:18.809Z,99686.81
2023-03-26T01:59:39.254Z,99695.41
2023-03-26T02:02:59.614Z,99696.47
2023-03-26T02:06:17.502Z,99693.25
2023-03-26T02:09:26.736Z,99686.19
2023-03-26T02:12:29.801Z,99692.28
2023-03-26T02:15:32.912Z,99704.38
2023-03-26T02:18:41.544Z,99712.44
2023-03-26T02:21:43.680Z,99709.75
2023-03-26T02:24:45.997Z,99705.72
2023-03-26T02:27:52.209Z,99707.59
2023-03-26T02:30:57.699Z,99698.47
2023-03-26T02:34:00.288Z,99700.00
2023-03-26T02:37:04.623Z,99701.88
2023-03-26T02:40:11.215Z,99696.25
2023-03-26T02:43:16.070Z,99691.34
2023-03-26T02:46:19.267Z,99690.84
2023-03-26T02:49:40.215Z,99691.91
2023-03-26T02:52:43.397Z,99694.69
2023-03-26T02:55:45.832Z,99685.47
2023-03-26T02:58:48.923Z,99686.09
2023-03-26T03:01:51.324Z,99678.38
2023-03-26T03:05:01.384Z,99681.91
2023-03-26T03:08:08.137Z,99697.75
2023-03-26T03:11:15.466Z,99696.38
2023-03-26T03:14:19.632Z,99696.13
2023-03-26T03:17:21.777Z,99692.91
2023-03-26T03:20:23.969Z,99686.44
2023-03-26T03:23:26.493Z,99689.13
2023-03-26T03:26:36.469Z,99692.59
2023-03-26T03:29:56.673Z,99694.44
2023-03-26T03:33:20.665Z,99707.25
2023-03-26T03:36:27.530Z,99693.09
2023-03-26T03:39:37.229Z,99682.28
2023-03-26T03:42:39.514Z,99683.31
2023-03-26T03:45:43.766Z,99680.97
2023-03-26T03:48:56.026Z,99689.22
2023-03-26T03:52:06.844Z,99709.13
2023-03-26T03:55:15.221Z,99718.28
2023-03-26T03:58:24.505Z,99703.50
2023-03-26T04:01:30.757Z,99706.50
2023-03-26T04:04:46.378Z,99706.66
2023-03-26T04:07:51.183Z,99707.47
2023-03-26T04:10:59.124Z,99709.53
2023-03-26T04:14:21.506Z,99718.41
2023-03-26T04:17:34.541Z,99716.16
2023-03-26T04:20:38.500Z,99718.84
2023-03-26T04:23:42.264Z,99717.25
2023-03-26T04:27:01.046Z,99716.47
2023-03-26T04:30:15.053Z,99710.34
2023-03-26T04:33:17.470Z,99712.31
2023-03-26T04:36:23.195Z,99711.81
2023-03-26T04:39:29.139Z,99704.56
2023-03-26T04:43:06.674Z,99709.91
2023-03-26T04:46:33.373Z,99711.25
2023-03-26T04:49:43.643Z,99718.22
2023-03-26T04:52:49.792Z,99718.50
2023-03-26T04:56:39.389Z,99710.53
2023-03-26T04:59:47.628Z,99700.91
2023-03-26T05:02:50.517Z,99710.69
2023-03-26T05:05:53.992Z,99703.66
2023-03-26T05:08:56.369Z,99702.59
2023-03-26T05:12:18.450Z,99695.09
2023-03-26T05:15:31.877Z,99702.38
2023-03-26T05:19:00.177Z,99702.47
2023-03-26T05:22:07.748Z,99697.47
2023-03-26T05:25:14.175Z,99695.31
2023-03-26T05:28:19.243Z,99695.31
2023-03-26T05:31:28.169Z,99688.09
2023-03-26T05:34:32.492Z,99691.34
2023-03-26T05:37:38.902Z,99693.00
2023-03-26T05:40:42.300Z,99687.63
2023-03-26T05:43:49.660Z,99706.72
2023-03-26T05:46:55.767Z,99693.28
2023-03-26T05:50:01.582Z,99708.31
2023-03-26T05:53:08.897Z,99710.81
2023-03-26T05:56:17.107Z,99713.59
2023-03-26T05:59:38.065Z,99704.22
2023-03-26T06:03:16.573Z,99699.44
2023-03-26T06:06:44.982Z,99693.34
2023-03-26T06:09:47.414Z,99693.09
2023-03-26T06:12:49.734Z,99685.56
2023-03-26T06:15:52.522Z,99686.91
2023-03-26T06:19:17.595Z,99688.03
2023-03-26T06:22:45.303Z,99683.72
2023-03-26T06:26:03.343Z,99683.47
2023-03-26T06:29:37.455Z,99687.22
2023-03-26T06:32:52.603Z,99680.53
2023-03-26T06:35:59.563Z,99682.94
2023-03-26T06:39:01.940Z,99692.88
2023-03-26T06:42:10.988Z,99696.41
2023-03-26T06:45:20.861Z,99688.06
2023-03-26T06:48:42.153Z,99681.34
2023-03-26T06:51:54.476Z,99688.84
2023-03-26T06:55:22.883Z,99681.31
2023-03-26T06:58:43.770Z,99696.38
2023-03-26T07:02:04.544Z,99685.88
2023-03-26T07:05:25.413Z,99691.53
2023-03-26T07:09:05.365Z,99682.06
2023-03-26T07:12:33.719Z,99690.44
2023-03-26T07:15:54.281Z,99679.41
2023-03-26T07:19:19.490Z,99675.88
2023-03-26T07:22:23.822Z,99671.78
2023-03-26T07:25:44.985Z,99678.53
2023-03-26T07:29:19.274Z,99670.91
2023-03-26T07:32:45.238Z,99668.75
2023-03-26T07:36:31.001Z,99685.75
2023-03-26T07:39:55.797Z,99690.84
2023-03-26T07:43:30.629Z,99699.22
2023-03-26T07:47:22.105Z,99690.31
2023-03-26T07:50:54.474Z,99688.44
2023-03-26T07:54:04.511Z,99677.91
2023-03-26T07:57:39.692Z,99688.13
2023-03-26T08:01:15.733Z,99679.22
2023-03-26T08:04:36.203Z,99682.16
2023-03-26T08:08:08.505Z,99683.44
2023-03-26T08:11:44.444Z,99677.78
2023-03-26T08:15:12.571Z,99673.47
2023-03-26T08:18:27.149Z,99691.28
2023-03-26T08:21:45.149Z,99677.78
2023-03-26T08:25:20.241Z,99671.56
2023-03-26T08:28:29.147Z,99672.91
2023-03-26T08:31:44.949Z,99666.69
2023-03-26T08:34:47.096Z,99668.88
2023-03-26T08:37:49.564Z,99674.53
2023-03-26T08:41:10.665Z,99668.34
2023-03-26T08:44:37.926Z,99670.78
2023-03-26T08:48:05.367Z,99667.00
2023-03-26T08:51:24.665Z,99668.06
2023-03-26T08:55:22.014Z,99668.34
2023-03-26T08:58:53.977Z,99662.16
2023-03-26T09:02:06.888Z,99654.06
2023-03-26T09:05:28.909Z,99662.94
2023-03-26T09:08:54.759Z,99660.44
2023-03-26T09:12:45.075Z,99656.16
2023-03-26T09:16:35.601Z,99654.25
2023-03-26T09:20:16.140Z,99656.44
2023-03-26T09:23:37.045Z,99646.97
2023-03-26T09:26:45.782Z,99653.44
2023-03-26T09:30:02.830Z,99652.88
2023-03-26T09:33:11.711Z,99650.72
2023-03-26T09:36:21.642Z,99648.53
2023-03-26T09:39:53.241Z,99645.81
2023-03-26T09:43:25.472Z,99644.69
2023-03-26T09:46:32.561Z,99631.19
2023-03-26T09:50:02.670Z,99626.25
2023-03-26T09:53:38.534Z,99632.16
2023-03-26T09:56:52.679Z,99632.56
2023-03-26T10:00:07.021Z,99618.00
2023-03-26T10:03:21.365Z,99613.34
2023-03-26T10:06:34.722Z,99606.00
2023-03-26T10:09:54.330Z,99583.78
2023-03-26T10:13:19.043Z,99578.38
2023-03-26T10:16:58.959Z,99575.09
2023-03-26T10:20:19.858Z,99574.03
2023-03-26T10:23:39.694Z,99575.91
2023-03-26T10:27:09.309Z,99570.28
2023-03-26T10:30:52.954Z,99562.75
2023-03-26T10:34:37.563Z,99560.72
2023-03-26T10:38:06.492Z,99570.47
2023-03-26T10:41:27.246Z,99572.44
2023-03-26T10:44:47.744Z,99599.84
2023-03-26T10:48:16.844Z,99577.88
2023-03-26T10:51:37.650Z,99568.84
2023-03-26T10:54:56.678Z,99562.44
2023-03-26T10:58:02.001Z,99564.66
2023-03-26T11:01:35.315Z,99556.19
2023-03-26T11:04:53.674Z,99547.00
2023-03-26T11:08:09.040Z,99539.59
2023-03-26T11:11:29.868Z,99536.03
2023-03-26T11:14:37.944Z,99528.97
2023-03-26T11:17:41.434Z,99527.09
2023-03-26T11:20:52.916Z,99515.53
2023-03-26T11:24:13.719Z,99520.13
2023-03-26T11:27:40.625Z,99512.84
2023-03-26T11:30:47.395Z,99501.72
2023-03-26T11:33:57.263Z,99490.28
2023-03-26T11:37:01.760Z,99481.59
2023-03-26T11:40:11.576Z,99464.59
2023-03-26T11:43:17.160Z,99464.06
2023-03-26T11:46:22.397Z,99461.34
2023-03-26T11:49:26.345Z,99449.63
2023-03-26T11:52:28.571Z,99440.00
2023-03-26T11:55:31.523Z,99439.50
2023-03-26T11:58:33.955Z,99425.66
2023-03-26T12:02:11.566Z,99420.69
2023-03-26T12:05:22.417Z,99416.78
2023-03-26T12:08:31.241Z,99411.34
2023-03-26T12:11:35.633Z,99382.94
2023-03-26T12:14:42.512Z,99386.66
2023-03-26T12:17:46.391Z,99383.34
2023-03-26T12:21:22.304Z,99369.41
2023-03-26T12:24:29.541Z,99375.53
2023-03-26T12:27:33.126Z,99359.50
2023-03-26T12:30:37.966Z,99352.06
2023-03-26T12:33:40.502Z,99350.88
2023-03-26T12:36:49.509Z,99350.88
2023-03-26T12:40:24.477Z,99340.34
2023-03-26T12:44:55.973Z,99327.44
2023-03-26T12:47:56.601Z,99327.44
2023-03-26T12:50:45.716Z,99316.19
2023-03-26T12:54:06.302Z,99320.72
2023-03-26T12:57:20.508Z,99317.19
2023-03-26T13:00:42.634Z,99298.53
2023-03-26T13:04:12.546Z,99308.34
2023-03-26T13:07:25.426Z,99301.63
2023-03-26T13:10:41.458Z,99278.91
2023-03-26T13:13:57.871Z,99268.66
2023-03-26T13:17:18.695Z,99283.09
2023-03-26T13:20:40.101Z,99263.81
2023-03-26T13:23:58.305Z,99254.72
2023-03-26T13:27:03.371Z,99250.84
2023-03-26T13:30:17.130Z,99242.34
2023-03-26T13:33:22.476Z,99239.63
2023-03-26T13:36:49.373Z,99235.75
2023-03-26T13:40:07.276Z,99232.69
2023-03-26T13:43:33.999Z,99229.78
2023-03-26T13:47:13.544Z,99225.31
2023-03-26T13:50:29.376Z,99212.19
2023-03-26T13:53:44.957Z,99223.81
2023-03-26T13:56:50.845Z,99216.78
2023-03-26T14:00:18.290Z,99210.41
2023-03-26T14:03:38.853Z,99206.09
2023-03-26T14:07:05.521Z,99187.56
2023-03-26T14:10:15.518Z,99189.09
2023-03-26T14:13:36.394Z,99173.44
2023-03-26T14:16:44.363Z,99182.88
2023-03-26T14:20:06.302Z,99175.66
2023-03-26T14:23:23.369Z,99174.22
2023-03-26T14:26:50.558Z,99169.72
2023-03-26T14:30:16.242Z,99155.19
2023-03-26T14:33:34.048Z,99150.44
2023-03-26T14:36:43.360Z,99145.31
2023-03-26T14:40:14.649Z,99147.81
2023-03-26T14:43:37.031Z,99139.59
2023-03-26T14:46:54.791Z,99134.13
2023-03-26T14:50:46.825Z,99127.00
2023-03-26T14:53:52.569Z,99121.28
2023-03-26T14:57:19.646Z,99124.63
2023-03-26T15:00:43.451Z,99117.44
2023-03-26T15:04:16.621Z,99109.28
2023-03-26T15:07:41.411Z,99100.66
2023-03-26T15:10:55.853Z,99093.84
2023-03-26T15:14:18.383Z,99093.50
2023-03-26T15:17:39.284Z,99090.47
2023-03-26T15:21:04.219Z,99090.94
2023-03-26T15:24:37.659Z,99076.91
2023-03-26T15:28:17.535Z,99083.91
2023-03-26T15:31:31.003Z,99070.03
2023-03-26T15:35:13.266Z,99069.09
2023-03-26T15:38:21.335Z,99061.25
2023-03-26T15:41:26.673Z,99065.91
2023-03-26T15:44:53.221Z,99061.75
2023-03-26T15:48:02.122Z,99055.03
2023-03-26T15:51:25.979Z,99058.97
2023-03-26T15:54:46.746Z,99057.50
2023-03-26T15:58:09.116Z,99053.22
2023-03-26T16:01:34.505Z,99051.28
2023-03-26T16:04:57.485Z,99028.78
2023-03-26T16:08:15.001Z,99029.56
2023-03-26T16:11:53.881Z,99024.63
2023-03-26T16:15:25.744Z,99019.31
2023-03-26T16:18:51.731Z,99005.47
2023-03-26T16:22:06.038Z,99001.94
2023-03-26T16:25:28.682Z,98990.75
2023-03-26T16:28:34.855Z,98989.13
2023-03-26T16:31:39.467Z,98986.03
2023-03-26T16:35:08.569Z,98993.78
2023-03-26T16:38:16.059Z,98988.63
2023-03-26T16:41:21.984Z,98985.41
2023-03-26T16:44:45.223Z,98974.00
2023-03-26T16:47:53.432Z,98984.34
2023-03-26T16:51:16.985Z,98988.41
2023-03-26T16:54:24.939Z,98989.75
2023-03-26T16:57:29.485Z,98989.22
2023-03-26T17:00:36.173Z,98987.91
2023-03-26T17:03:44.959Z,98990.03
2023-03-26T17:07:08.563Z,98990.28
2023-03-26T17:10:32.725Z,98989.22
2023-03-26T17:13:40.354Z,98991.72
2023-03-26T17:16:49.958Z,99002.44
2023-03-26T17:20:11.664Z,98996.03
2023-03-26T17:23:31.137Z,98996.16
2023-03-26T17:26:47.692Z,99002.28
2023-03-26T17:29:52.615Z,99000.78
2023-03-26T17:33:05.828Z,99002.47
2023-03-26T17:36:11.424Z,99001.00
2023-03-26T17:39:39.672Z,98998.41
2023-03-26T17:43:04.953Z,98982.19
2023-03-26T17:46:22.493Z,98994.00
2023-03-26T17:49:28.953Z,98986.56
2023-03-26T17:52:48.398Z,98991.41
2023-03-26T17:55:51.527Z,98981.28
2023-03-26T17:58:58.676Z,98985.56
2023-03-26T18:02:34.423Z,98979.78
2023-03-26T18:05:39.044Z,98986.69
2023-03-26T18:09:07.246Z,98988.38
2023-03-26T18:12:34.646Z,98989.78
2023-03-26T18:15:36.802Z,98994.91
2023-03-26T18:18:59.646Z,98972.19
2023-03-26T18:22:07.250Z,98984.50
2023-03-26T18:25:21.433Z,98973.56
2023-03-26T18:28:35.533Z,98979.19
2023-03-26T18:31:44.007Z,98971.09
2023-03-26T18:34:52.644Z,98960.19
2023-03-26T18:37:59.969Z,98970.28
2023-03-26T18:41:02.255Z,98973.56
2023-03-26T18:44:17.937Z,98962.28
2023-03-26T18:47:21.024Z,98956.38
2023-03-26T18:50:26.754Z,98945.09
2023-03-26T18:53:30.742Z,98944.13
2023-03-26T18:56:39.451Z,98943.00
2023-03-26T18:59:45.152Z,98933.31
2023-03-26T19:02:49.804Z,98923.13
2023-03-26T19:05:53.722Z,98926.31
2023-03-26T19:08:56.945Z,98904.91
2023-03-26T19:12:06.752Z,98923.13
2023-03-26T19:18:33.662Z,98908.13
2023-03-26T19:21:36.420Z,98907.63
2023-03-26T19:24:40.568Z,98903.84
2023-03-26T19:27:43.108Z,98903.34
2023-03-26T19:30:45.578Z,98904.66
2023-03-26T19:33:56.061Z,98895.75
2023-03-26T19:37:03.959Z,98888.75
2023-03-26T19:40:17.531Z,98892.53
2023-03-26T19:43:20.257Z,98884.25
2023-03-26T19:46:23.073Z,98875.06
2023-03-26T19:49:28.322Z,98858.19
2023-03-26T19:52:36.642Z,98858.69
2023-03-26T19:55:42.951Z,98848.00
2023-03-26T19:58:45.177Z,98839.41
2023-03-26T20:01:47.423Z,98837.00
2023-03-26T20:04:49.605Z,98832.22
2023-03-26T20:07:52.769Z,98822.03
2023-03-26T20:10:56.693Z,98805.63
2023-03-26T20:14:00.755Z,98810.13
2023-03-26T20:17:03.074Z,98784.19
2023-03-26T20:20:08.983Z,98780.97
2023-03-26T20:23:14.376Z,98781.59
2023-03-26T20:26:18.459Z,98771.78
2023-03-26T20:29:20.618Z,98762.72
2023-03-26T20:32:26.467Z,98757.63
2023-03-26T20:35:36.211Z,98761.13
2023-03-26T20:38:40.015Z,98745.56
2023-03-26T20:41:46.313Z,98744.44
2023-03-26T20:44:48.516Z,98740.72
2023-03-26T20:47:53.675Z,98739.13
2023-03-26T20:50:57.149Z,98737.63
2023-03-26T20:54:00.531Z,98743.22
2023-03-26T20:57:02.860Z,98740.53
2023-03-26T21:00:24.148Z,98731.63
2023-03-26T21:03:26.391Z,98728.56
2023-03-26T21:06:31.690Z,98725.84
2023-03-26T21:09:34.301Z,98727.56
2023-03-26T21:13:00.381Z,98726.56
2023-03-26T21:16:03.260Z,98726.66
2023-03-26T21:19:05.767Z,98719.97
2023-03-26T21:22:13.685Z,98723.97
2023-03-26T21:25:22.752Z,98717.97
2023-03-26T21:28:39.385Z,98724.47
2023-03-26T21:31:44.586Z,98713.69
2023-03-26T21:34:57.511Z,98727.56
2023-03-26T21:38:01.576Z,98745.09
2023-03-26T21:41:04.617Z,98768.16
2023-03-26T21:44:08.456Z,98768.13
2023-03-26T21:47:11.292Z,98778.38
2023-03-26T21:50:16.328Z,98782.25
2023-03-26T21:53:18.715Z,98778.44
2023-03-26T21:56:20.907Z,98781.75
2023-03-26T21:59:45.668Z,98754.81
2023-03-26T22:02:57.918Z,98769.00
2023-03-26T22:06:07.057Z,98755.59
2023-03-26T22:09:12.814Z,98756.09
2023-03-26T22:12:15.086Z,98752.41
2023-03-26T22:15:18.373Z,98745.44
2023-03-26T22:18:25.884Z,98741.84
2023-03-26T22:21:28.116Z,98728.75
2023-03-26T22:24:30.224Z,98734.44
2023-03-26T22:27:32.353Z,98729.34
2023-03-26T22:30:46.572Z,98730.63
2023-03-26T22:33:49.070Z,98725.88
2023-03-26T22:36:52.060Z,98729.47
2023-03-26T22:39:54.210Z,98721.19
2023-03-26T22:42:56.562Z,98720.88
2023-03-26T22:45:58.901Z,98726.78
2023-03-26T22:49:03.798Z,98725.66
2023-03-26T22:52:07.169Z,98716.31
2023-03-26T22:55:11.036Z,98710.69
2023-03-26T22:58:13.310Z,98709.41
2023-03-26T23:01:18.409Z,98711.88
2023-03-26T23:04:31.190Z,98698.22
2023-03-26T23:07:34.037Z,98700.53
2023-03-26T23:10:36.835Z,98691.09
2023-03-26T23:13:43.077Z,98698.66
2023-03-26T23:16:45.772Z,98697.13
2023-03-26T23:19:47.970Z,98694.50
2023-03-26T23:22:50.613Z,98694.00
2023-03-26T23:25:54.397Z,98690.53
2023-03-26T23:28:57.186Z,98679.06
2023-03-26T23:32:00.026Z,98669.97
2023-03-26T23:35:02.355Z,98668.38
2023-03-26T23:38:06.780Z,98657.41
2023-03-26T23:41:09.491Z,98655.13
2023-03-26T23:44:14.375Z,98650.56
2023-03-26T23:47:16.691Z,98645.06
2023-03-26T23:50:18.891Z,98648.03
2023-03-26T23:53:23.541Z,98644.31
2023-03-26T23:56:27.826Z,98622.91
2023-03-26T23:59:30.061Z,98619.03
